createdAt,value
2019-05-05T00:04:45.435Z,16
2019-05-05T00:14:44.222Z,15.9
2019-05-05T00:24:44.354Z,15.9
2019-05-05T00:34:44.215Z,15.9
2019-05-05T00:44:41.430Z,16
2019-05-05T00:54:40.641Z,15.9
2019-05-05T01:04:39.864Z,16
2019-05-05T01:14:39.082Z,16
2019-05-05T01:24:38.344Z,15.9
2019-05-05T01:38:04.862Z,15.6
2019-05-05T01:48:02.444Z,15.6
2019-05-05T01:58:01.667Z,15.5
2019-05-05T02:08:00.876Z,15.5
2019-05-05T02:18:00.090Z,15.4
2019-05-05T02:27:59.308Z,15.3
2019-05-05T02:43:41.238Z,15.3
2019-05-05T02:53:40.513Z,15.3
2019-05-05T03:03:39.678Z,15.4
2019-05-05T03:19:06.493Z,15.4
2019-05-05T03:29:05.718Z,15.2
2019-05-05T03:39:05.182Z,15
2019-05-05T03:49:04.772Z,14.9
2019-05-05T03:59:04.835Z,15
2019-05-05T04:09:04.281Z,15.1
2019-05-05T04:19:03.544Z,14.9
2019-05-05T04:29:03.031Z,14.9
2019-05-05T04:39:00.477Z,14.9
2019-05-05T04:48:59.737Z,15.2
2019-05-05T04:58:59.039Z,14.8
2019-05-05T05:14:28.495Z,14.5
2019-05-05T05:24:27.716Z,14.3
2019-05-05T05:34:26.931Z,13.8
2019-05-05T05:44:28.055Z,13.6
2019-05-05T05:54:25.360Z,13.4
2019-05-05T06:04:24.627Z,13.1
2019-05-05T06:14:24.655Z,13.2
2019-05-05T06:24:24.000Z,13.4
2019-05-05T06:34:24.283Z,13.7
2019-05-05T06:44:21.756Z,13.9
2019-05-05T06:54:21.114Z,13.9
2019-05-05T07:04:20.406Z,14.1
2019-05-05T07:14:19.569Z,14.5
2019-05-05T07:24:18.792Z,15.3
2019-05-05T07:34:18.061Z,15.7
2019-05-05T07:44:26.436Z,16.4
2019-05-05T07:54:16.438Z,16.9
2019-05-05T08:04:15.657Z,17.6
2019-05-05T08:14:14.873Z,17.8
2019-05-05T08:24:14.150Z,18.4
2019-05-05T08:34:14.220Z,19.1
2019-05-05T08:44:14.237Z,19.2
2019-05-05T08:54:11.760Z,19.3
2019-05-05T09:04:10.963Z,18.8
2019-05-05T09:14:10.183Z,18.5
2019-05-05T09:24:09.404Z,18.8
2019-05-05T09:34:08.623Z,19
2019-05-05T09:44:07.839Z,19.7
2019-05-05T09:54:13.863Z,19.6
2019-05-05T10:05:54.144Z,19.3
2019-05-05T10:15:54.906Z,19.7
2019-05-05T10:25:53.932Z,19.8
2019-05-05T10:35:51.445Z,20
2019-05-05T10:45:50.664Z,20
2019-05-05T10:55:49.935Z,19.8
2019-05-05T11:05:49.166Z,19.6
2019-05-05T11:15:48.475Z,19
2019-05-05T11:27:31.835Z,19.2
2019-05-05T11:37:31.069Z,19.3
2019-05-05T11:47:30.285Z,19.1
2019-05-05T11:57:29.547Z,19.6
2019-05-05T12:07:28.766Z,19.8
2019-05-05T12:17:27.938Z,20.1
2019-05-05T12:27:27.211Z,20.4
2019-05-05T12:37:26.509Z,20.8
2019-05-05T12:47:25.808Z,20.5
2019-05-05T12:57:25.120Z,20.3
2019-05-05T13:07:24.453Z,20
2019-05-05T13:17:24.461Z,20
2019-05-05T13:27:24.848Z,19.8
2019-05-05T13:37:24.234Z,19.5
2019-05-05T13:47:21.385Z,19.3
2019-05-05T13:57:20.602Z,19.2
2019-05-05T14:07:19.819Z,19.1
2019-05-05T14:17:19.037Z,18.9
2019-05-05T14:27:18.257Z,18.8
2019-05-05T14:37:17.482Z,18.6
2019-05-05T14:47:16.701Z,18.8
2019-05-05T14:57:15.925Z,18.8
2019-05-05T15:07:15.139Z,18.8
2019-05-05T15:17:14.377Z,18.4
2019-05-05T15:31:53.711Z,18.2
2019-05-05T15:41:51.139Z,18.2
2019-05-05T15:51:50.308Z,18
2019-05-05T16:01:49.527Z,18
2019-05-05T16:11:48.746Z,17.9
2019-05-05T16:21:48.004Z,18.1
2019-05-05T16:31:47.245Z,17.9
2019-05-05T16:41:46.550Z,17.9
2019-05-05T16:51:45.843Z,17.8
2019-05-05T17:01:45.157Z,17.6
2019-05-05T17:11:44.461Z,17.2
2019-05-05T17:21:44.522Z,16.7
2019-05-05T17:36:53.939Z,16.3
2019-05-05T17:46:53.793Z,16.4
2019-05-05T17:56:54.927Z,16.8
2019-05-05T18:09:43.784Z,16.9
2019-05-05T18:19:43.268Z,17.1
2019-05-05T18:29:40.583Z,17.2
2019-05-05T18:39:39.747Z,17.3
2019-05-05T18:49:38.981Z,17.3
2019-05-05T18:59:38.188Z,17.3
2019-05-05T19:09:37.468Z,17.3
2019-05-05T19:19:36.767Z,17.1
2019-05-05T19:29:36.079Z,16.9
2019-05-05T19:39:35.385Z,16.9
2019-05-05T19:49:34.690Z,16.9
2019-05-05T19:59:35.770Z,16.8
2019-05-05T20:09:34.011Z,16.8
2019-05-05T20:19:34.144Z,16.8
2019-05-05T20:29:34.888Z,16.8
2019-05-05T20:39:30.875Z,16.8
2019-05-05T20:49:30.090Z,16.8
2019-05-05T20:59:30.984Z,16.8
2019-05-05T21:09:28.576Z,16.7
2019-05-05T21:19:27.753Z,16.6
2019-05-05T21:29:38.382Z,16.4
2019-05-05T21:39:26.192Z,16.3
2019-05-05T21:49:25.412Z,16.4
2019-05-05T21:59:24.672Z,16.4
2019-05-05T22:07:50.241Z,16.4
2019-05-05T22:17:49.468Z,16.4
2019-05-05T22:27:48.685Z,16.4
2019-05-05T22:37:47.902Z,16.3
2019-05-05T22:47:47.121Z,16.3
2019-05-05T22:57:46.342Z,16.3
2019-05-05T23:07:45.604Z,16.3
2019-05-05T23:17:44.901Z,16.3
2019-05-05T23:27:44.215Z,16.3
2019-05-05T23:37:44.837Z,16.4
2019-05-05T23:47:44.662Z,16.3
2019-05-05T23:57:43.721Z,16.3
